createdAt,value
2018-03-17T00:01:26.436Z,87.00
2018-03-17T00:03:54.643Z,87.10
2018-03-17T00:06:22.774Z,87.20
2018-03-17T00:08:50.954Z,86.90
2018-03-17T00:11:19.122Z,86.30
2018-03-17T00:13:47.282Z,86.10
2018-03-17T00:16:15.424Z,87.10
2018-03-17T00:18:43.581Z,87.40
2018-03-17T00:21:11.712Z,87.90
2018-03-17T00:23:39.895Z,88.10
2018-03-17T00:26:08.018Z,87.70
2018-03-17T00:28:36.163Z,86.70
2018-03-17T00:31:04.326Z,85.00
2018-03-17T00:33:32.453Z,84.20
2018-03-17T00:36:00.609Z,83.20
2018-03-17T00:38:28.746Z,81.00
2018-03-17T00:40:56.893Z,81.00
2018-03-17T00:43:25.049Z,81.40
2018-03-17T00:45:53.205Z,81.00
2018-03-17T00:48:21.385Z,80.40
2018-03-17T00:50:50.316Z,80.90
2018-03-17T00:53:18.442Z,80.80
2018-03-17T00:55:46.604Z,79.80
2018-03-17T00:58:14.742Z,79.50
2018-03-17T01:00:42.890Z,79.10
2018-03-17T01:03:11.017Z,79.40
2018-03-17T01:05:39.174Z,80.50
2018-03-17T01:08:07.299Z,80.60
2018-03-17T01:10:35.465Z,80.50
2018-03-17T01:13:04.362Z,82.50
2018-03-17T01:15:32.494Z,82.30
2018-03-17T01:18:00.646Z,82.00
2018-03-17T01:20:28.785Z,81.50
2018-03-17T01:22:56.965Z,81.20
2018-03-17T01:25:25.120Z,80.70
2018-03-17T01:27:54.041Z,81.70
2018-03-17T01:30:22.175Z,81.50
2018-03-17T01:32:50.334Z,82.00
2018-03-17T01:35:18.456Z,82.10
2018-03-17T01:37:46.617Z,82.80
2018-03-17T01:40:14.750Z,83.20
2018-03-17T01:42:42.899Z,83.60
2018-03-17T01:45:11.028Z,83.60
2018-03-17T01:47:39.193Z,83.00
2018-03-17T01:50:07.323Z,83.50
2018-03-17T01:52:35.477Z,83.40
2018-03-17T01:55:03.611Z,83.30
2018-03-17T01:57:31.763Z,82.90
2018-03-17T01:59:59.897Z,81.90
2018-03-17T02:02:28.053Z,81.90
2018-03-17T02:04:56.946Z,83.10
2018-03-17T02:07:25.093Z,83.00
2018-03-17T02:09:54.014Z,84.30
2018-03-17T02:12:22.183Z,84.30
2018-03-17T02:14:51.074Z,84.80
2018-03-17T02:17:19.230Z,85.00
2018-03-17T02:19:48.139Z,85.20
2018-03-17T02:22:16.356Z,85.20
2018-03-17T02:24:45.217Z,85.70
2018-03-17T02:27:13.353Z,85.90
2018-03-17T02:29:41.501Z,85.40
2018-03-17T02:32:09.631Z,85.60
2018-03-17T02:34:37.798Z,85.20
2018-03-17T02:37:05.937Z,85.80
2018-03-17T02:39:34.094Z,85.40
2018-03-17T02:42:02.222Z,85.10
2018-03-17T02:44:30.373Z,85.80
2018-03-17T02:46:58.515Z,86.20
2018-03-17T02:49:26.670Z,85.00
2018-03-17T02:51:54.798Z,84.20
2018-03-17T02:54:23.724Z,83.90
2018-03-17T02:56:51.855Z,83.90
2018-03-17T02:59:20.011Z,84.70
2018-03-17T03:01:48.143Z,84.50
2018-03-17T03:04:16.301Z,83.50
2018-03-17T03:06:44.434Z,83.40
2018-03-17T03:09:12.595Z,83.40
2018-03-17T03:11:40.726Z,83.80
2018-03-17T03:14:08.888Z,83.10
2018-03-17T03:16:37.784Z,82.90
2018-03-17T03:19:05.949Z,82.60
2018-03-17T03:21:34.840Z,81.80
2018-03-17T03:24:03.005Z,81.80
2018-03-17T03:26:31.893Z,79.80
2018-03-17T03:29:00.032Z,79.50
2018-03-17T03:31:28.193Z,79.50
2018-03-17T03:33:56.324Z,79.00
2018-03-17T03:36:24.475Z,78.50
2018-03-17T03:38:52.601Z,78.70
2018-03-17T03:41:20.755Z,78.10
2018-03-17T03:43:48.884Z,77.20
2018-03-17T03:46:17.037Z,77.40
2018-03-17T03:48:45.162Z,78.40
2018-03-17T03:51:13.308Z,78.20
2018-03-17T03:53:41.432Z,78.70
2018-03-17T03:56:09.581Z,77.60
2018-03-17T03:58:37.709Z,77.10
2018-03-17T04:01:05.865Z,77.40
2018-03-17T04:03:33.996Z,76.90
2018-03-17T04:06:02.913Z,76.90
2018-03-17T04:08:31.047Z,76.80
2018-03-17T04:10:59.197Z,77.60
2018-03-17T04:13:27.325Z,77.50
2018-03-17T04:15:55.473Z,77.80
2018-03-17T04:18:23.606Z,77.70
2018-03-17T04:20:51.762Z,77.10
2018-03-17T04:23:19.893Z,77.20
2018-03-17T04:25:48.046Z,76.80
2018-03-17T04:28:16.177Z,78.30
2018-03-17T04:30:44.339Z,78.10
2018-03-17T04:33:12.461Z,78.40
2018-03-17T04:35:40.610Z,78.40
2018-03-17T04:38:08.737Z,78.40
2018-03-17T04:40:36.902Z,79.00
2018-03-17T04:43:05.028Z,79.00
2018-03-17T04:45:33.153Z,78.10
2018-03-17T04:48:01.311Z,77.60
2018-03-17T04:50:29.761Z,77.20
2018-03-17T04:52:57.910Z,78.40
2018-03-17T04:55:26.041Z,77.30
2018-03-17T04:57:54.196Z,77.10
2018-03-17T05:00:22.321Z,77.20
2018-03-17T05:02:50.479Z,77.40
2018-03-17T05:05:19.370Z,77.10
2018-03-17T05:07:47.526Z,76.50
2018-03-17T05:10:15.655Z,77.30
2018-03-17T05:12:43.810Z,77.30
2018-03-17T05:15:11.937Z,77.40
2018-03-17T05:17:40.085Z,77.50
2018-03-17T05:20:08.218Z,78.70
2018-03-17T05:22:36.374Z,78.90
2018-03-17T05:25:05.270Z,79.00
2018-03-17T05:27:34.192Z,79.20
2018-03-17T05:30:02.321Z,78.80
2018-03-17T05:32:30.478Z,79.00
2018-03-17T05:34:58.613Z,78.60
2018-03-17T05:37:26.733Z,79.30
2018-03-17T05:39:54.890Z,78.40
2018-03-17T05:42:23.012Z,78.90
2018-03-17T05:44:51.168Z,79.60
2018-03-17T05:47:19.292Z,78.90
2018-03-17T05:49:47.450Z,78.70
2018-03-17T05:52:15.650Z,78.70
2018-03-17T05:54:43.746Z,78.60
2018-03-17T05:57:11.906Z,79.40
2018-03-17T05:59:40.046Z,79.20
2018-03-17T06:02:08.200Z,78.40
2018-03-17T06:04:36.325Z,78.70
2018-03-17T06:07:04.483Z,77.70
2018-03-17T06:09:32.611Z,78.00
2018-03-17T06:12:00.797Z,78.90
2018-03-17T06:14:28.922Z,79.70
2018-03-17T06:16:57.086Z,79.30
2018-03-17T06:19:25.226Z,79.20
2018-03-17T06:21:53.387Z,80.00
2018-03-17T06:24:21.518Z,79.50
2018-03-17T06:26:49.684Z,79.10
2018-03-17T06:29:17.824Z,78.70
2018-03-17T06:31:45.986Z,77.90
2018-03-17T06:34:14.126Z,77.70
2018-03-17T06:36:42.320Z,77.30
2018-03-17T06:39:10.454Z,77.40
2018-03-17T06:41:38.724Z,77.00
2018-03-17T06:44:06.893Z,76.50
2018-03-17T06:46:35.023Z,75.90
2018-03-17T06:49:03.937Z,75.70
2018-03-17T06:51:32.066Z,75.70
2018-03-17T06:54:00.230Z,76.50
2018-03-17T06:56:28.361Z,76.60
2018-03-17T06:58:56.514Z,75.60
2018-03-17T07:01:24.647Z,75.00
2018-03-17T07:03:52.802Z,74.70
2018-03-17T07:06:20.933Z,73.20
2018-03-17T07:08:49.096Z,71.70
2018-03-17T07:11:17.235Z,71.20
2018-03-17T07:13:45.386Z,70.10
2018-03-17T07:16:13.516Z,69.50
2018-03-17T07:18:41.670Z,70.40
2018-03-17T07:21:09.801Z,69.20
2018-03-17T07:23:37.954Z,67.40
2018-03-17T07:26:06.084Z,66.80
2018-03-17T07:28:34.245Z,66.00
2018-03-17T07:31:02.373Z,66.00
2018-03-17T07:33:30.533Z,65.00
2018-03-17T07:35:58.665Z,64.80
2018-03-17T07:38:26.826Z,64.30
2018-03-17T07:40:54.994Z,66.80
2018-03-17T07:43:23.150Z,66.70
2018-03-17T07:45:51.282Z,64.20
2018-03-17T07:48:19.437Z,62.80
2018-03-17T07:50:47.570Z,61.40
2018-03-17T07:53:15.975Z,60.20
2018-03-17T07:55:44.102Z,61.00
2018-03-17T07:58:12.266Z,63.60
2018-03-17T08:00:40.390Z,59.30
2018-03-17T08:03:08.540Z,59.70
2018-03-17T08:05:36.665Z,57.80
2018-03-17T08:08:04.837Z,57.60
2018-03-17T08:10:32.959Z,57.80
2018-03-17T08:13:01.158Z,57.90
2018-03-17T08:15:29.286Z,57.80
2018-03-17T08:17:58.202Z,58.70
2018-03-17T08:20:26.329Z,58.70
2018-03-17T08:22:55.254Z,53.60
2018-03-17T08:25:23.392Z,53.40
2018-03-17T08:27:51.542Z,53.30
2018-03-17T08:30:19.674Z,53.50
2018-03-17T08:32:47.856Z,53.70
2018-03-17T08:35:15.980Z,53.70
2018-03-17T08:37:44.130Z,53.10
2018-03-17T08:40:12.263Z,51.10
2018-03-17T08:42:40.410Z,50.10
2018-03-17T08:45:08.562Z,50.20
2018-03-17T08:47:36.706Z,50.80
2018-03-17T08:50:04.825Z,51.00
2018-03-17T08:52:32.988Z,50.30
2018-03-17T08:55:01.109Z,50.70
2018-03-17T08:57:29.272Z,50.20
2018-03-17T08:59:57.402Z,50.10
2018-03-17T09:02:25.522Z,51.20
2018-03-17T09:04:53.698Z,52.50
2018-03-17T09:07:21.855Z,51.90
2018-03-17T09:09:50.776Z,52.70
2018-03-17T09:12:18.905Z,52.90
2018-03-17T09:14:47.055Z,53.80
2018-03-17T09:17:15.187Z,50.50
2018-03-17T09:19:43.344Z,49.10
2018-03-17T09:22:11.474Z,49.60
2018-03-17T09:24:39.627Z,51.50
2018-03-17T09:27:07.841Z,52.90
2018-03-17T09:29:36.011Z,53.80
2018-03-17T09:32:04.933Z,56.50
2018-03-17T09:34:33.091Z,56.40
2018-03-17T09:37:01.998Z,53.10
2018-03-17T09:39:30.166Z,53.00
2018-03-17T09:41:59.066Z,54.50
2018-03-17T09:44:27.220Z,54.60
2018-03-17T09:46:56.104Z,57.50
2018-03-17T09:49:24.259Z,57.40
2018-03-17T09:51:52.394Z,56.10
2018-03-17T09:54:20.537Z,53.10
2018-03-17T09:56:48.684Z,53.50
2018-03-17T09:59:16.834Z,53.80
2018-03-17T10:01:44.954Z,54.40
2018-03-17T10:04:13.870Z,54.70
2018-03-17T10:06:41.997Z,54.70
2018-03-17T10:09:10.158Z,53.10
2018-03-17T10:11:38.285Z,54.30
2018-03-17T10:14:06.548Z,56.50
2018-03-17T10:16:35.443Z,58.60
2018-03-17T10:19:03.599Z,58.50
2018-03-17T10:21:32.491Z,55.10
2018-03-17T10:24:00.647Z,55.20
2018-03-17T10:26:28.788Z,54.80
2018-03-17T10:28:56.933Z,55.10
2018-03-17T10:31:25.066Z,53.00
2018-03-17T10:33:53.216Z,53.90
2018-03-17T10:36:21.674Z,55.70
2018-03-17T10:38:49.826Z,55.80
2018-03-17T10:41:17.954Z,56.50
2018-03-17T10:43:46.129Z,55.50
2018-03-17T10:46:14.256Z,54.70
2018-03-17T10:48:42.623Z,53.90
2018-03-17T10:51:11.543Z,57.00
2018-03-17T10:53:39.706Z,56.60
2018-03-17T10:56:07.828Z,57.80
2018-03-17T10:58:36.002Z,56.60
2018-03-17T11:01:09.839Z,58.20
2018-03-17T11:03:37.982Z,57.40
2018-03-17T11:06:06.154Z,58.30
2018-03-17T11:08:34.293Z,58.90
2018-03-17T11:11:02.420Z,58.30
2018-03-17T11:13:30.565Z,57.70
2018-03-17T11:15:58.689Z,56.30
2018-03-17T11:18:26.845Z,55.20
2018-03-17T11:20:55.743Z,57.20
2018-03-17T11:23:23.901Z,57.20
2018-03-17T11:25:52.050Z,56.30
2018-03-17T11:28:20.263Z,58.00
2018-03-17T11:30:48.409Z,57.60
2018-03-17T11:33:16.566Z,57.00
2018-03-17T11:35:44.758Z,52.30
2018-03-17T11:38:12.902Z,54.00
2018-03-17T11:40:41.033Z,56.40
2018-03-17T11:43:09.952Z,58.40
2018-03-17T11:45:38.103Z,58.30
2018-03-17T11:48:06.266Z,57.20
2018-03-17T11:50:34.425Z,58.40
2018-03-17T11:53:02.549Z,59.20
2018-03-17T11:55:30.698Z,57.40
2018-03-17T11:57:58.830Z,58.00
2018-03-17T12:00:26.977Z,59.30
2018-03-17T12:02:55.155Z,59.20
2018-03-17T12:05:23.290Z,58.10
2018-03-17T12:07:51.424Z,55.20
2018-03-17T12:10:19.631Z,55.50
2018-03-17T12:12:47.734Z,56.40
2018-03-17T12:15:15.885Z,56.40
2018-03-17T12:17:44.012Z,57.20
2018-03-17T12:20:12.158Z,57.60
2018-03-17T12:22:40.292Z,56.20
2018-03-17T12:25:08.443Z,57.50
2018-03-17T12:27:36.565Z,58.80
2018-03-17T12:30:04.715Z,61.20
2018-03-17T12:32:32.838Z,59.00
2018-03-17T12:35:00.999Z,59.30
2018-03-17T12:37:29.125Z,58.70
2018-03-17T12:39:57.315Z,56.10
2018-03-17T12:42:25.452Z,56.90
2018-03-17T12:44:53.583Z,56.70
2018-03-17T12:47:21.734Z,55.70
2018-03-17T12:49:49.857Z,57.20
2018-03-17T12:52:18.014Z,57.70
2018-03-17T12:54:46.143Z,57.00
2018-03-17T12:57:14.289Z,57.40
2018-03-17T12:59:42.415Z,58.00
2018-03-17T13:02:10.563Z,57.90
2018-03-17T13:04:38.687Z,59.90
2018-03-17T13:07:06.837Z,59.50
2018-03-17T13:09:34.970Z,57.90
2018-03-17T13:12:03.124Z,56.60
2018-03-17T13:14:31.253Z,56.80
2018-03-17T13:16:59.510Z,57.70
2018-03-17T13:19:31.156Z,57.30
2018-03-17T13:21:59.302Z,57.30
2018-03-17T13:24:27.514Z,56.50
2018-03-17T13:27:07.360Z,57.60
2018-03-17T13:29:35.497Z,57.90
2018-03-17T13:32:03.662Z,58.90
2018-03-17T13:34:31.841Z,59.50
2018-03-17T13:37:11.741Z,58.90
2018-03-17T13:39:39.871Z,58.70
2018-03-17T13:42:08.181Z,59.80
2018-03-17T13:44:36.335Z,59.10
2018-03-17T13:47:04.536Z,59.10
2018-03-17T13:49:32.700Z,59.80
2018-03-17T13:52:01.621Z,57.60
2018-03-17T13:54:29.746Z,57.60
2018-03-17T13:56:57.893Z,56.70
2018-03-17T13:59:26.047Z,57.50
2018-03-17T14:01:54.164Z,56.40
2018-03-17T14:04:22.314Z,56.80
2018-03-17T14:06:50.447Z,57.20
2018-03-17T14:09:18.594Z,58.10
2018-03-17T14:11:46.727Z,58.20
2018-03-17T14:14:14.879Z,58.40
2018-03-17T14:16:43.039Z,59.40
2018-03-17T14:19:11.193Z,61.40
2018-03-17T14:21:39.321Z,60.00
2018-03-17T14:24:07.485Z,61.00
2018-03-17T14:26:35.675Z,59.70
2018-03-17T14:29:03.798Z,60.40
2018-03-17T14:31:32.074Z,58.40
2018-03-17T14:34:00.221Z,60.40
2018-03-17T14:36:28.356Z,62.00
2018-03-17T14:38:56.532Z,61.40
2018-03-17T14:41:24.783Z,60.40
2018-03-17T14:43:52.934Z,58.20
2018-03-17T14:46:21.062Z,57.10
2018-03-17T14:48:49.208Z,57.00
2018-03-17T14:51:17.335Z,58.50
2018-03-17T14:53:45.513Z,58.40
2018-03-17T14:56:13.634Z,58.90
2018-03-17T14:58:41.790Z,61.30
2018-03-17T15:01:09.920Z,61.10
2018-03-17T15:03:38.086Z,60.40
2018-03-17T15:06:06.229Z,60.60
2018-03-17T15:08:34.362Z,61.10
2018-03-17T15:11:03.306Z,64.40
2018-03-17T15:13:31.451Z,64.50
2018-03-17T15:15:59.814Z,64.30
2018-03-17T15:18:28.705Z,64.10
2018-03-17T15:20:56.866Z,64.00
2018-03-17T15:23:25.758Z,66.10
2018-03-17T15:25:53.910Z,66.50
2018-03-17T15:28:22.046Z,66.90
2018-03-17T15:30:50.215Z,67.30
2018-03-17T15:33:18.353Z,66.50
2018-03-17T15:35:46.514Z,66.40
2018-03-17T15:38:14.639Z,66.90
2018-03-17T15:40:42.799Z,66.10
2018-03-17T15:43:10.932Z,65.90
2018-03-17T15:45:39.179Z,66.60
2018-03-17T15:48:07.316Z,68.80
2018-03-17T15:50:35.576Z,68.50
2018-03-17T15:53:04.480Z,68.70
2018-03-17T15:55:32.832Z,68.70
2018-03-17T15:58:00.961Z,68.70
2018-03-17T16:00:29.120Z,68.70
2018-03-17T16:02:57.261Z,70.50
2018-03-17T16:05:25.422Z,71.50
2018-03-17T16:07:53.554Z,70.60
2018-03-17T16:10:21.714Z,69.00
2018-03-17T16:12:49.853Z,69.20
2018-03-17T16:15:18.014Z,69.60
2018-03-17T16:17:46.519Z,70.30
2018-03-17T16:20:15.454Z,72.00
2018-03-17T16:22:43.615Z,72.10
2018-03-17T16:25:11.820Z,72.50
2018-03-17T16:27:39.995Z,72.10
2018-03-17T16:30:08.165Z,72.50
2018-03-17T16:32:36.339Z,72.70
2018-03-17T16:35:04.512Z,72.00
2018-03-17T16:37:32.752Z,71.80
2018-03-17T16:40:00.927Z,71.90
2018-03-17T16:42:29.122Z,72.60
2018-03-17T16:44:57.489Z,73.10
2018-03-17T16:47:25.836Z,73.80
2018-03-17T16:49:54.756Z,73.70
2018-03-17T16:52:22.886Z,73.70
2018-03-17T16:54:51.784Z,74.10
2018-03-17T16:57:19.942Z,74.00
2018-03-17T16:59:48.069Z,74.80
2018-03-17T17:02:16.218Z,75.30
2018-03-17T17:04:44.357Z,76.00
2018-03-17T17:07:12.525Z,75.90
2018-03-17T17:09:40.668Z,76.20
2018-03-17T17:12:08.827Z,76.50
2018-03-17T17:14:36.957Z,77.10
2018-03-17T17:17:05.125Z,77.00
2018-03-17T17:19:33.258Z,77.90
2018-03-17T17:22:01.416Z,77.00
2018-03-17T17:24:29.546Z,78.40
2018-03-17T17:26:57.710Z,78.70
2018-03-17T17:29:25.861Z,78.90
2018-03-17T17:31:54.022Z,79.50
2018-03-17T17:34:22.150Z,79.60
2018-03-17T17:36:50.315Z,80.30
2018-03-17T17:39:18.446Z,80.50
2018-03-17T17:41:46.788Z,80.50
2018-03-17T17:44:15.733Z,80.60
2018-03-17T17:46:43.895Z,80.60
2018-03-17T17:49:12.095Z,80.90
2018-03-17T17:51:40.340Z,81.50
2018-03-17T17:54:08.476Z,81.40
2018-03-17T17:56:36.692Z,81.90
2018-03-17T17:59:04.872Z,82.30
2018-03-17T18:01:33.255Z,82.60
2018-03-17T18:04:01.399Z,82.50
2018-03-17T18:06:29.555Z,82.90
2018-03-17T18:08:57.706Z,83.00
2018-03-17T18:11:26.635Z,84.10
2018-03-17T18:13:54.773Z,84.00
2018-03-17T18:16:23.951Z,84.60
2018-03-17T18:18:52.108Z,84.40
2018-03-17T18:21:20.234Z,84.10
2018-03-17T18:23:49.158Z,84.10
2018-03-17T18:26:17.316Z,84.00
2018-03-17T18:28:45.499Z,84.00
2018-03-17T18:31:13.750Z,84.40
2018-03-17T18:33:42.666Z,83.80
2018-03-17T18:36:10.807Z,83.70
2018-03-17T18:38:39.757Z,83.60
2018-03-17T18:41:07.886Z,83.80
2018-03-17T18:43:36.069Z,82.90
2018-03-17T18:46:04.332Z,82.30
2018-03-17T18:48:33.637Z,81.90
2018-03-17T18:51:01.904Z,81.70
2018-03-17T18:53:30.035Z,82.00
2018-03-17T18:55:58.190Z,81.60
2018-03-17T18:58:26.468Z,81.80
2018-03-17T19:00:54.664Z,82.10
2018-03-17T19:03:22.789Z,81.80
2018-03-17T19:05:51.017Z,82.20
2018-03-17T19:08:19.449Z,82.50
2018-03-17T19:10:47.672Z,81.70
2018-03-17T19:13:15.838Z,81.20
2018-03-17T19:15:44.048Z,81.00
2018-03-17T19:18:12.146Z,79.60
2018-03-17T19:20:40.314Z,79.50
2018-03-17T19:23:08.453Z,79.60
2018-03-17T19:25:36.657Z,79.20
2018-03-17T19:28:04.791Z,79.10
2018-03-17T19:30:32.948Z,79.40
2018-03-17T19:33:01.130Z,79.80
2018-03-17T19:35:29.281Z,79.10
2018-03-17T19:37:57.413Z,79.30
2018-03-17T19:40:25.615Z,79.70
2018-03-17T19:42:53.741Z,79.80
2018-03-17T19:45:21.941Z,79.20
2018-03-17T19:47:50.073Z,78.20
2018-03-17T19:50:18.225Z,78.60
2018-03-17T19:52:46.562Z,78.90
2018-03-17T19:55:15.453Z,78.50
2018-03-17T19:57:43.639Z,78.60
2018-03-17T20:00:11.794Z,79.00
2018-03-17T20:02:39.941Z,79.40
2018-03-17T20:05:08.121Z,78.40
2018-03-17T20:07:37.069Z,76.70
2018-03-17T20:10:05.202Z,76.70
2018-03-17T20:12:34.136Z,77.10
2018-03-17T20:15:02.262Z,77.10
2018-03-17T20:17:31.220Z,76.40
2018-03-17T20:19:59.350Z,76.40
2018-03-17T20:22:27.511Z,74.70
2018-03-17T20:24:55.665Z,74.50
2018-03-17T20:27:23.826Z,74.90
2018-03-17T20:29:51.961Z,74.80
2018-03-17T20:32:20.119Z,74.10
2018-03-17T20:34:48.257Z,74.40
2018-03-17T20:37:16.597Z,73.40
2018-03-17T20:39:44.686Z,73.20
2018-03-17T20:42:12.848Z,73.30
2018-03-17T20:44:40.975Z,73.70
2018-03-17T20:47:09.897Z,73.30
2018-03-17T20:49:38.066Z,73.20
2018-03-17T20:52:06.238Z,73.10
2018-03-17T20:54:34.494Z,73.50
2018-03-17T20:57:02.667Z,73.50
2018-03-17T20:59:30.945Z,74.30
2018-03-17T21:01:59.874Z,74.20
2018-03-17T21:04:28.078Z,74.20
2018-03-17T21:06:56.310Z,73.90
2018-03-17T21:09:24.438Z,73.80
2018-03-17T21:11:52.606Z,73.50
2018-03-17T21:14:20.749Z,73.80
2018-03-17T21:16:49.645Z,74.40
2018-03-17T21:19:17.802Z,74.40
2018-03-17T21:21:45.930Z,74.00
2018-03-17T21:24:14.102Z,73.00
2018-03-17T21:26:42.993Z,72.50
2018-03-17T21:29:11.160Z,71.60
2018-03-17T21:31:39.290Z,72.20
2018-03-17T21:34:07.458Z,71.30
2018-03-17T21:36:35.591Z,70.40
2018-03-17T21:39:03.786Z,70.60
2018-03-17T21:41:31.916Z,71.20
2018-03-17T21:44:00.070Z,71.10
2018-03-17T21:46:28.218Z,71.90
2018-03-17T21:48:56.379Z,70.60
2018-03-17T21:51:24.507Z,70.30
2018-03-17T21:53:52.667Z,70.80
2018-03-17T21:56:20.817Z,70.80
2018-03-17T21:58:48.985Z,71.50
2018-03-17T22:01:17.147Z,70.90
2018-03-17T22:03:45.311Z,71.00
2018-03-17T22:06:13.467Z,70.80
2018-03-17T22:08:41.617Z,71.30
2018-03-17T22:11:09.765Z,71.60
2018-03-17T22:13:37.999Z,72.30
2018-03-17T22:16:06.119Z,72.70
2018-03-17T22:18:34.270Z,72.40
2018-03-17T22:21:02.394Z,72.50
2018-03-17T22:23:30.564Z,72.20
2018-03-17T22:25:58.693Z,71.90
2018-03-17T22:28:26.865Z,72.80
2018-03-17T22:30:54.993Z,73.40
2018-03-17T22:33:23.122Z,73.50
2018-03-17T22:35:51.372Z,73.50
2018-03-17T22:38:19.506Z,73.90
2018-03-17T22:40:47.682Z,73.50
2018-03-17T22:43:15.837Z,73.50
2018-03-17T22:45:43.999Z,73.70
2018-03-17T22:48:12.134Z,73.90
2018-03-17T22:50:40.322Z,73.50
2018-03-17T22:53:08.460Z,74.60
2018-03-17T22:55:36.614Z,74.30
2018-03-17T22:58:04.745Z,74.20
2018-03-17T23:00:32.929Z,74.60
2018-03-17T23:03:01.070Z,74.00
2018-03-17T23:05:29.217Z,74.20
2018-03-17T23:07:57.396Z,74.40
2018-03-17T23:10:25.557Z,74.40
2018-03-17T23:12:53.699Z,74.30
2018-03-17T23:15:21.900Z,74.30
2018-03-17T23:17:50.877Z,75.10
2018-03-17T23:20:19.164Z,74.80
2018-03-17T23:22:47.314Z,74.70
2018-03-17T23:25:15.509Z,74.20
2018-03-17T23:27:43.690Z,74.80
2018-03-17T23:30:11.877Z,74.40
2018-03-17T23:32:40.038Z,74.90
2018-03-17T23:35:08.220Z,75.40
2018-03-17T23:37:36.349Z,75.60
2018-03-17T23:40:04.502Z,75.40
2018-03-17T23:42:33.400Z,75.90
2018-03-17T23:45:01.549Z,75.90
2018-03-17T23:47:29.692Z,74.80
2018-03-17T23:49:57.903Z,75.10
2018-03-17T23:52:25.997Z,75.60
2018-03-17T23:54:54.155Z,74.80
2018-03-17T23:57:23.050Z,75.30
2018-03-17T23:59:51.214Z,75.30
